Time;durP1;ratioP1;P1;durP2;ratioP2;P2;SDS_P1;SDS_P2;PMS_P1;PMS_P2;Temp;Humidity;BMP_temperature;BMP_pressure;BME280_temperature;BME280_humidity;BME280_pressure;Samples;Min_cycle;Max_cycle;Signal;HPM_P1;HPM_P2
2021/09/25 00:01:28;;;;;;;;;;;14.60;99.90;;;;;;5045894;28;20398;-80
2021/09/25 00:03:54;;;;;;;;;;;14.60;99.90;;;;;;5050620;28;20405;-79
2021/09/25 00:06:21;;;;;;;;;;;14.60;99.90;;;;;;5048269;28;19925;-80
2021/09/25 00:08:48;;;;;;;;;;;14.60;99.90;;;;;;5050924;28;19925;-80
2021/09/25 00:11:16;;;;;;;;;;;14.60;99.90;;;;;;5050231;28;19925;-80
2021/09/25 00:13:43;;;;;;;;;;;14.60;99.90;;;;;;5043364;28;19974;-80
2021/09/25 00:16:11;;;;;;;;;;;14.50;99.90;;;;;;5049329;28;19931;-80
2021/09/25 00:18:37;;;;;;;;;;;14.60;99.90;;;;;;5050164;28;20012;-81
2021/09/25 00:21:04;;;;;;;;;;;14.50;99.90;;;;;;5044069;28;19960;-80
2021/09/25 00:23:31;;;;;;;;;;;14.50;99.90;;;;;;5051575;28;20380;-79
2021/09/25 00:25:58;;;;;;;;;;;14.50;99.90;;;;;;5040513;28;19939;-80
2021/09/25 00:28:26;;;;;;;;;;;14.50;99.90;;;;;;5050992;28;19931;-80
2021/09/25 00:30:52;;;;;;;;;;;14.50;99.90;;;;;;5049559;28;20015;-79
2021/09/25 00:33:19;;;;;;;;;;;14.40;99.90;;;;;;5046476;28;20391;-80
2021/09/25 00:35:46;;;;;;;;;;;14.40;99.90;;;;;;5043331;28;19932;-80
2021/09/25 00:38:12;;;;;;;;;;;14.40;99.90;;;;;;5041649;28;20027;-80
2021/09/25 00:40:39;;;;;;;;;;;14.40;99.90;;;;;;5041243;28;20019;-80
2021/09/25 00:43:06;;;;;;;;;;;14.30;99.90;;;;;;5051210;28;19935;-79
2021/09/25 00:45:34;;;;;;;;;;;14.30;99.90;;;;;;5046575;28;20035;-80
2021/09/25 00:48:00;;;;;;;;;;;14.20;99.90;;;;;;5050426;28;20303;-80
2021/09/25 00:50:28;;;;;;;;;;;14.20;99.90;;;;;;5049856;28;20409;-79
2021/09/25 00:52:55;;;;;;;;;;;14.10;99.90;;;;;;5049519;28;20277;-79
2021/09/25 00:55:21;;;;;;;;;;;14.10;99.90;;;;;;5040258;28;19926;-80
2021/09/25 00:57:52;;;;;;;;;;;14.00;99.90;;;;;;5048202;28;19925;-80
2021/09/25 01:00:19;;;;;;;;;;;14.00;99.90;;;;;;5050773;28;19988;-80
2021/09/25 01:02:47;;;;;;;;;;;14.00;99.90;;;;;;5051700;28;19988;-80
2021/09/25 01:05:16;;;;;;;;;;;13.90;99.90;;;;;;5043776;28;19925;-81
2021/09/25 01:07:43;;;;;;;;;;;13.90;99.90;;;;;;5041792;28;19932;-78
2021/09/25 01:10:10;;;;;;;;;;;13.90;99.90;;;;;;5043834;28;20350;-80
2021/09/25 01:12:37;;;;;;;;;;;13.80;99.90;;;;;;5049290;28;19925;-79
2021/09/25 01:15:04;;;;;;;;;;;13.80;99.90;;;;;;5046276;28;20031;-80
2021/09/25 01:17:31;;;;;;;;;;;13.90;99.90;;;;;;5048596;28;19936;-80
2021/09/25 01:20:00;;;;;;;;;;;13.80;99.90;;;;;;5049683;28;20016;-80
2021/09/25 01:22:28;;;;;;;;;;;13.80;99.90;;;;;;5042604;28;19924;-78
2021/09/25 01:24:54;;;;;;;;;;;13.80;99.90;;;;;;5044289;28;19931;-79
2021/09/25 01:27:21;;;;;;;;;;;13.80;99.90;;;;;;5046628;28;19932;-79
2021/09/25 01:29:48;;;;;;;;;;;13.80;99.90;;;;;;5049635;28;20023;-79
2021/09/25 01:32:15;;;;;;;;;;;13.80;99.90;;;;;;5047642;28;20394;-79
2021/09/25 01:34:42;;;;;;;;;;;13.70;99.90;;;;;;5050718;28;20237;-79
2021/09/25 01:37:09;;;;;;;;;;;13.70;99.90;;;;;;5040156;28;20004;-80
2021/09/25 01:39:37;;;;;;;;;;;13.70;99.90;;;;;;5050202;28;19925;-80
2021/09/25 01:42:04;;;;;;;;;;;13.70;99.90;;;;;;5047251;28;20294;-78
2021/09/25 01:44:31;;;;;;;;;;;13.70;99.90;;;;;;5049660;28;19925;-79
2021/09/25 01:46:58;;;;;;;;;;;13.70;99.90;;;;;;5046256;28;19931;-79
2021/09/25 01:49:25;;;;;;;;;;;13.70;99.90;;;;;;5050881;28;19924;-80
2021/09/25 01:51:52;;;;;;;;;;;13.60;99.90;;;;;;5051419;28;20019;-80
2021/09/25 01:54:19;;;;;;;;;;;13.60;99.90;;;;;;5041962;28;19931;-80
2021/09/25 01:56:47;;;;;;;;;;;13.60;99.90;;;;;;5046666;28;19925;-80
2021/09/25 01:59:14;;;;;;;;;;;13.50;99.90;;;;;;5051400;28;20459;-80
2021/09/25 02:01:40;;;;;;;;;;;13.50;99.90;;;;;;5052254;28;19924;-80
2021/09/25 02:04:07;;;;;;;;;;;13.50;99.90;;;;;;5053104;28;19933;-80
2021/09/25 02:06:34;;;;;;;;;;;13.50;99.90;;;;;;5052488;28;19925;-80
2021/09/25 02:09:00;;;;;;;;;;;13.40;99.90;;;;;;5052218;28;19924;-80
2021/09/25 02:11:27;;;;;;;;;;;13.40;99.90;;;;;;5040759;28;20023;-78
2021/09/25 02:13:55;;;;;;;;;;;13.40;99.90;;;;;;5052190;28;19932;-79
2021/09/25 02:16:22;;;;;;;;;;;13.40;99.90;;;;;;5048754;28;20411;-77
2021/09/25 02:18:50;;;;;;;;;;;13.40;99.90;;;;;;5053801;28;20386;-79
2021/09/25 02:21:17;;;;;;;;;;;13.40;99.90;;;;;;5051695;28;20148;-79
2021/09/25 02:23:43;;;;;;;;;;;13.40;99.90;;;;;;5048664;28;20418;-73
2021/09/25 02:26:10;;;;;;;;;;;13.40;99.90;;;;;;5047627;28;19928;-73
2021/09/25 02:28:37;;;;;;;;;;;13.40;99.90;;;;;;5048708;28;19954;-75
2021/09/25 02:31:05;;;;;;;;;;;13.40;99.90;;;;;;5046911;28;20021;-75
2021/09/25 02:33:31;;;;;;;;;;;13.40;99.90;;;;;;5050725;28;20391;-75
2021/09/25 02:35:58;;;;;;;;;;;13.40;99.90;;;;;;5044217;28;20606;-74
2021/09/25 02:38:25;;;;;;;;;;;13.40;99.90;;;;;;5050931;28;20360;-75
2021/09/25 02:40:51;;;;;;;;;;;13.40;99.90;;;;;;5048009;28;19925;-74
2021/09/25 02:43:18;;;;;;;;;;;13.40;99.90;;;;;;5049826;28;20376;-74
2021/09/25 02:45:45;;;;;;;;;;;13.50;99.90;;;;;;5048775;28;19924;-74
2021/09/25 02:48:13;;;;;;;;;;;13.50;99.90;;;;;;5045412;28;19933;-75
2021/09/25 02:50:39;;;;;;;;;;;13.60;99.90;;;;;;5038873;28;20140;-74
2021/09/25 02:53:06;;;;;;;;;;;13.60;99.90;;;;;;5049244;28;19931;-74
2021/09/25 02:55:33;;;;;;;;;;;13.60;99.90;;;;;;5043964;28;19933;-74
2021/09/25 02:57:59;;;;;;;;;;;13.60;99.90;;;;;;5043050;28;20018;-74
2021/09/25 03:00:26;;;;;;;;;;;13.70;99.90;;;;;;5045194;28;19931;-75
2021/09/25 03:02:53;;;;;;;;;;;13.80;99.90;;;;;;5039439;28;19933;-73
2021/09/25 03:05:21;;;;;;;;;;;13.80;99.90;;;;;;5048964;28;20447;-75
2021/09/25 03:07:47;;;;;;;;;;;13.80;99.90;;;;;;5043670;28;19931;-75
2021/09/25 03:10:14;;;;;;;;;;;13.90;99.90;;;;;;5043929;28;20004;-74
2021/09/25 03:12:41;;;;;;;;;;;13.90;99.90;;;;;;5040559;28;19932;-74
2021/09/25 03:15:08;;;;;;;;;;;13.90;99.90;;;;;;5046286;28;19947;-74
2021/09/25 03:17:35;;;;;;;;;;;14.00;99.90;;;;;;5041240;28;19943;-74
2021/09/25 03:20:03;;;;;;;;;;;14.00;99.90;;;;;;5049930;28;19931;-73
2021/09/25 03:22:31;;;;;;;;;;;14.00;99.90;;;;;;5043414;28;19932;-74
2021/09/25 03:24:57;;;;;;;;;;;14.00;99.90;;;;;;5042081;28;19944;-74
2021/09/25 03:27:26;;;;;;;;;;;14.00;99.90;;;;;;5045586;28;19931;-73
2021/09/25 03:29:52;;;;;;;;;;;14.00;99.90;;;;;;5041169;28;19940;-73
2021/09/25 03:32:19;;;;;;;;;;;13.90;99.90;;;;;;5049161;28;19925;-73
2021/09/25 03:34:46;;;;;;;;;;;13.90;99.90;;;;;;5041016;28;20024;-74
2021/09/25 03:37:12;;;;;;;;;;;13.90;99.90;;;;;;5048129;28;19933;-74
2021/09/25 03:39:41;;;;;;;;;;;13.90;99.90;;;;;;5047002;28;19924;-74
2021/09/25 03:42:07;;;;;;;;;;;13.90;99.90;;;;;;5040687;28;19929;-74
2021/09/25 03:44:34;;;;;;;;;;;13.90;99.90;;;;;;5043427;28;19931;-74
2021/09/25 03:47:00;;;;;;;;;;;13.80;99.90;;;;;;5045761;28;20029;-73
2021/09/25 03:49:27;;;;;;;;;;;13.80;99.90;;;;;;5044161;28;19925;-73
2021/09/25 03:51:54;;;;;;;;;;;13.70;99.90;;;;;;5047839;28;19925;-74
2021/09/25 03:54:21;;;;;;;;;;;13.70;99.90;;;;;;5048984;28;20285;-74
2021/09/25 03:56:49;;;;;;;;;;;13.60;99.90;;;;;;5045950;28;20292;-75
2021/09/25 03:59:16;;;;;;;;;;;13.60;99.90;;;;;;5044266;28;19986;-74
2021/09/25 04:01:42;;;;;;;;;;;13.60;99.90;;;;;;5046160;28;19925;-74
2021/09/25 04:04:09;;;;;;;;;;;13.50;99.90;;;;;;5043932;28;19939;-75
2021/09/25 04:06:37;;;;;;;;;;;13.50;99.90;;;;;;5047759;28;20051;-75
2021/09/25 04:09:05;;;;;;;;;;;13.50;99.90;;;;;;5042001;28;19925;-75
2021/09/25 04:11:36;;;;;;;;;;;13.40;99.90;;;;;;5038521;28;20299;-75
2021/09/25 04:14:04;;;;;;;;;;;13.40;99.90;;;;;;5043734;28;20036;-75
2021/09/25 04:16:31;;;;;;;;;;;13.30;99.90;;;;;;5040258;28;20390;-75
2021/09/25 04:18:58;;;;;;;;;;;13.30;99.90;;;;;;5042718;28;20296;-74
2021/09/25 04:21:24;;;;;;;;;;;13.30;99.90;;;;;;5044103;28;20018;-75
2021/09/25 04:23:51;;;;;;;;;;;13.30;99.90;;;;;;5048786;28;19979;-75
2021/09/25 04:26:18;;;;;;;;;;;13.20;99.90;;;;;;5046606;28;19967;-75
2021/09/25 04:28:45;;;;;;;;;;;13.20;99.90;;;;;;5048243;28;19931;-75
2021/09/25 04:31:13;;;;;;;;;;;13.20;99.90;;;;;;5042791;28;20285;-73
2021/09/25 04:33:40;;;;;;;;;;;13.20;99.90;;;;;;5045937;28;19925;-74
2021/09/25 04:36:06;;;;;;;;;;;13.10;99.90;;;;;;5046402;28;19928;-74
2021/09/25 04:38:33;;;;;;;;;;;13.10;99.90;;;;;;5047137;28;20561;-74
2021/09/25 04:40:59;;;;;;;;;;;13.00;99.90;;;;;;5047313;28;20360;-74
2021/09/25 04:43:26;;;;;;;;;;;13.00;99.90;;;;;;5045933;28;20470;-73
2021/09/25 04:45:53;;;;;;;;;;;13.00;99.90;;;;;;5045167;28;19931;-74
2021/09/25 04:48:21;;;;;;;;;;;13.00;99.90;;;;;;5044671;28;20015;-73
2021/09/25 04:50:48;;;;;;;;;;;12.90;99.90;;;;;;5046203;28;19925;-73
2021/09/25 04:53:15;;;;;;;;;;;12.90;99.90;;;;;;5048649;28;19931;-74
2021/09/25 04:55:42;;;;;;;;;;;12.90;99.90;;;;;;5044809;28;20298;-74
2021/09/25 04:58:09;;;;;;;;;;;12.80;99.90;;;;;;5046887;28;19940;-74
2021/09/25 05:00:36;;;;;;;;;;;12.80;99.90;;;;;;5043800;28;20287;-74
2021/09/25 05:03:03;;;;;;;;;;;12.80;99.90;;;;;;5047663;28;19925;-73
2021/09/25 05:05:31;;;;;;;;;;;12.80;99.90;;;;;;5045468;28;19951;-74
2021/09/25 05:07:58;;;;;;;;;;;12.80;99.90;;;;;;5040828;28;19935;-75
2021/09/25 05:10:24;;;;;;;;;;;12.80;99.90;;;;;;5046376;28;19926;-74
2021/09/25 05:12:51;;;;;;;;;;;12.90;99.90;;;;;;5043009;28;20652;-74
2021/09/25 05:15:18;;;;;;;;;;;12.90;99.90;;;;;;5047166;28;20443;-75
2021/09/25 05:17:44;;;;;;;;;;;12.90;99.90;;;;;;5040810;28;19929;-74
2021/09/25 05:20:12;;;;;;;;;;;12.90;99.90;;;;;;5042943;28;19925;-74
2021/09/25 05:22:40;;;;;;;;;;;12.90;99.90;;;;;;5047106;28;19928;-75
2021/09/25 05:25:07;;;;;;;;;;;12.90;99.90;;;;;;5043722;28;19932;-75
2021/09/25 05:27:34;;;;;;;;;;;12.90;99.90;;;;;;5049763;28;19931;-75
2021/09/25 05:30:01;;;;;;;;;;;13.00;99.90;;;;;;5049289;28;19933;-75
2021/09/25 05:32:27;;;;;;;;;;;13.00;99.90;;;;;;5049679;28;19925;-76
2021/09/25 05:34:54;;;;;;;;;;;12.90;99.90;;;;;;5050196;28;19924;-75
2021/09/25 05:37:21;;;;;;;;;;;12.90;99.90;;;;;;5050688;28;19931;-76
2021/09/25 05:39:54;;;;;;;;;;;13.00;99.90;;;;;;5049810;28;20019;-75
2021/09/25 05:42:20;;;;;;;;;;;13.00;99.90;;;;;;5045362;28;20281;-75
2021/09/25 05:44:47;;;;;;;;;;;13.00;99.90;;;;;;5047975;28;19933;-75
2021/09/25 05:47:14;;;;;;;;;;;13.00;99.90;;;;;;5045444;28;20060;-74
2021/09/25 05:49:42;;;;;;;;;;;13.00;99.90;;;;;;5049874;28;19931;-74
2021/09/25 05:52:09;;;;;;;;;;;13.00;99.90;;;;;;5049276;28;19932;-75
2021/09/25 05:54:36;;;;;;;;;;;13.00;99.90;;;;;;5050475;28;19967;-74
2021/09/25 05:57:05;;;;;;;;;;;13.00;99.90;;;;;;5048231;28;19965;-76
2021/09/25 05:59:32;;;;;;;;;;;12.90;99.90;;;;;;5050845;28;19924;-75
2021/09/25 06:01:58;;;;;;;;;;;12.90;99.90;;;;;;5045515;28;20420;-76
2021/09/25 06:04:25;;;;;;;;;;;13.00;99.90;;;;;;5048402;28;19939;-76
2021/09/25 06:06:52;;;;;;;;;;;13.00;99.90;;;;;;5048811;28;19935;-75
2021/09/25 06:09:18;;;;;;;;;;;13.00;99.90;;;;;;5050378;28;19929;-75
2021/09/25 06:11:45;;;;;;;;;;;13.00;99.90;;;;;;5046065;28;19925;-75
2021/09/25 06:14:13;;;;;;;;;;;13.00;99.90;;;;;;5047524;28;19925;-76
2021/09/25 06:16:40;;;;;;;;;;;13.00;99.90;;;;;;5047650;28;20334;-76
2021/09/25 06:19:07;;;;;;;;;;;13.10;99.90;;;;;;5046393;28;19925;-76
2021/09/25 06:21:34;;;;;;;;;;;13.10;99.90;;;;;;5045936;28;20846;-75
2021/09/25 06:24:01;;;;;;;;;;;13.20;99.90;;;;;;5049107;28;19925;-75
2021/09/25 06:26:27;;;;;;;;;;;13.30;99.90;;;;;;5041640;28;19972;-75
2021/09/25 06:28:54;;;;;;;;;;;13.30;99.90;;;;;;5049139;28;19931;-75
2021/09/25 06:31:22;;;;;;;;;;;13.40;99.90;;;;;;5046557;28;19933;-75
2021/09/25 06:33:49;;;;;;;;;;;13.50;99.90;;;;;;5049473;28;19948;-75
2021/09/25 06:36:15;;;;;;;;;;;13.70;99.90;;;;;;5043076;28;19924;-75
2021/09/25 06:38:42;;;;;;;;;;;13.80;99.90;;;;;;5045858;28;19951;-75
2021/09/25 06:41:09;;;;;;;;;;;13.80;99.90;;;;;;5045605;28;19939;-75
2021/09/25 06:43:35;;;;;;;;;;;13.90;99.90;;;;;;5047927;28;19925;-75
2021/09/25 06:46:02;;;;;;;;;;;14.00;99.90;;;;;;5048926;28;19936;-74
2021/09/25 06:48:30;;;;;;;;;;;14.10;99.90;;;;;;5048698;28;19925;-75
2021/09/25 06:50:57;;;;;;;;;;;14.10;99.90;;;;;;5047789;28;20013;-79
2021/09/25 06:53:24;;;;;;;;;;;14.10;99.90;;;;;;5049626;28;19925;-80
2021/09/25 06:55:51;;;;;;;;;;;14.10;99.90;;;;;;5044345;28;19943;-81
2021/09/25 06:58:17;;;;;;;;;;;14.10;99.90;;;;;;5047350;28;19935;-80
2021/09/25 07:00:47;;;;;;;;;;;14.20;99.90;;;;;;5045554;28;19979;-81
2021/09/25 07:03:13;;;;;;;;;;;14.50;99.90;;;;;;5048000;28;20015;-81
2021/09/25 07:05:42;;;;;;;;;;;14.70;99.90;;;;;;5045539;28;20380;-81
2021/09/25 07:08:10;;;;;;;;;;;14.80;99.90;;;;;;5041782;28;20276;-79
2021/09/25 07:10:37;;;;;;;;;;;14.80;99.90;;;;;;5047445;28;20011;-79
2021/09/25 07:13:04;;;;;;;;;;;14.70;99.90;;;;;;5038815;28;21058;-79
2021/09/25 07:15:31;;;;;;;;;;;14.80;99.90;;;;;;5038898;28;19925;-81
2021/09/25 07:17:58;;;;;;;;;;;14.70;99.90;;;;;;5040662;28;19925;-80
2021/09/25 07:20:25;;;;;;;;;;;14.80;99.90;;;;;;5046446;28;19956;-81
2021/09/25 07:22:53;;;;;;;;;;;14.90;99.90;;;;;;5039975;28;19935;-83
2021/09/25 07:25:20;;;;;;;;;;;14.90;99.90;;;;;;5044444;28;20032;-83
2021/09/25 07:27:47;;;;;;;;;;;15.00;99.90;;;;;;5042370;28;19928;-82
2021/09/25 07:30:14;;;;;;;;;;;15.10;99.90;;;;;;5040849;28;19940;-82
2021/09/25 07:32:41;;;;;;;;;;;16.10;99.90;;;;;;5039156;28;20422;-83
2021/09/25 07:35:13;;;;;;;;;;;18.30;99.90;;;;;;5041189;28;19932;-82
2021/09/25 07:37:40;;;;;;;;;;;19.90;99.90;;;;;;5039958;28;19932;-82
2021/09/25 07:40:08;;;;;;;;;;;20.90;99.90;;;;;;5045729;28;19924;-82
2021/09/25 07:42:35;;;;;;;;;;;21.30;99.90;;;;;;5041569;28;19929;-79
2021/09/25 07:45:02;;;;;;;;;;;22.10;99.90;;;;;;5043124;28;20405;-79
2021/09/25 07:47:29;;;;;;;;;;;22.60;99.90;;;;;;5040644;28;19925;-79
2021/09/25 07:49:56;;;;;;;;;;;23.00;99.90;;;;;;5043463;28;20288;-79
2021/09/25 07:52:31;;;;;;;;;;;23.50;99.80;;;;;;5040320;28;19960;-81
2021/09/25 07:55:00;;;;;;;;;;;24.30;98.00;;;;;;5042778;28;19972;-81
2021/09/25 07:57:28;;;;;;;;;;;25.00;95.40;;;;;;5041070;28;19932;-80
2021/09/25 07:59:55;;;;;;;;;;;25.60;92.80;;;;;;5044182;28;19972;-77
2021/09/25 08:02:21;;;;;;;;;;;25.30;91.90;;;;;;5044994;28;20024;-77
2021/09/25 08:04:48;;;;;;;;;;;25.10;91.90;;;;;;5044077;28;20291;-77
2021/09/25 08:07:15;;;;;;;;;;;25.70;91.20;;;;;;5035184;28;20945;-77
2021/09/25 08:09:43;;;;;;;;;;;25.60;90.40;;;;;;5040592;28;19933;-82
2021/09/25 08:12:10;;;;;;;;;;;25.90;89.80;;;;;;5042612;28;19933;-80
2021/09/25 08:14:38;;;;;;;;;;;25.60;90.00;;;;;;5043218;28;19929;-81
2021/09/25 08:17:06;;;;;;;;;;;25.60;90.20;;;;;;5042053;28;20402;-81
2021/09/25 08:19:33;;;;;;;;;;;26.40;87.30;;;;;;5041637;28;20007;-81
2021/09/25 08:21:59;;;;;;;;;;;25.70;87.90;;;;;;5039893;28;19925;-80
2021/09/25 08:24:26;;;;;;;;;;;24.50;90.60;;;;;;5030578;28;19932;-81
2021/09/25 08:26:53;;;;;;;;;;;24.40;91.80;;;;;;5044382;28;19978;-81
2021/09/25 08:29:20;;;;;;;;;;;24.60;90.60;;;;;;5040040;28;20319;-82
2021/09/25 08:31:48;;;;;;;;;;;23.10;92.40;;;;;;5037501;28;20016;-82
2021/09/25 08:34:15;;;;;;;;;;;22.20;95.00;;;;;;5038692;28;19948;-82
2021/09/25 08:36:42;;;;;;;;;;;21.90;96.00;;;;;;5037459;28;19925;-82
2021/09/25 08:39:09;;;;;;;;;;;21.40;97.40;;;;;;5046468;28;19931;-82
2021/09/25 08:41:36;;;;;;;;;;;21.30;99.10;;;;;;5045763;28;20012;-82
2021/09/25 08:44:03;;;;;;;;;;;21.30;99.40;;;;;;5039165;28;19933;-77
2021/09/25 08:46:30;;;;;;;;;;;21.10;99.70;;;;;;5037293;28;19925;-78
2021/09/25 08:48:58;;;;;;;;;;;21.00;99.90;;;;;;5039107;28;19925;-78
2021/09/25 08:51:24;;;;;;;;;;;20.60;99.90;;;;;;5039005;28;19928;-78
2021/09/25 08:53:51;;;;;;;;;;;20.60;99.90;;;;;;5045836;28;19924;-80
2021/09/25 08:56:18;;;;;;;;;;;21.10;99.90;;;;;;5043375;28;20003;-79
2021/09/25 08:58:49;;;;;;;;;;;21.60;99.90;;;;;;5040594;28;19964;-79
2021/09/25 09:01:19;;;;;;;;;;;21.30;99.90;;;;;;5047957;28;19925;-80
2021/09/25 09:03:46;;;;;;;;;;;21.00;99.90;;;;;;5051289;28;19924;-79
2021/09/25 09:06:17;;;;;;;;;;;20.70;99.90;;;;;;5047379;28;19925;-81
2021/09/25 09:08:47;;;;;;;;;;;20.60;99.90;;;;;;5044458;28;19932;-81
2021/09/25 09:11:14;;;;;;;;;;;20.80;99.90;;;;;;5047199;28;19925;-82
2021/09/25 09:13:42;;;;;;;;;;;21.00;99.90;;;;;;5042121;28;20379;-83
2021/09/25 09:16:10;;;;;;;;;;;21.30;99.90;;;;;;5042169;28;19925;-85
2021/09/25 09:18:40;;;;;;;;;;;21.50;99.90;;;;;;5053937;28;19925;-87
2021/09/25 09:21:11;;;;;;;;;;;21.70;99.90;;;;;;5045333;28;19936;-82
2021/09/25 09:23:41;;;;;;;;;;;21.90;99.90;;;;;;5038462;28;19929;-81
2021/09/25 09:26:08;;;;;;;;;;;21.90;99.90;;;;;;5038889;28;19961;-82
2021/09/25 09:28:36;;;;;;;;;;;22.00;99.90;;;;;;5046568;28;20434;-82
2021/09/25 09:31:03;;;;;;;;;;;22.00;99.90;;;;;;5043204;28;20000;-82
2021/09/25 09:33:31;;;;;;;;;;;21.90;99.90;;;;;;5044025;28;20585;-78
2021/09/25 09:36:16;;;;;;;;;;;21.60;99.90;;;;;;5042742;28;19939;-78
2021/09/25 09:38:49;;;;;;;;;;;21.50;99.90;;;;;;5046627;28;19932;-78
2021/09/25 09:41:17;;;;;;;;;;;21.40;99.90;;;;;;5043195;28;19924;-78
2021/09/25 09:43:43;;;;;;;;;;;21.50;99.90;;;;;;5040883;28;20044;-78
2021/09/25 09:46:10;;;;;;;;;;;21.30;99.90;;;;;;5042564;28;19929;-78
2021/09/25 09:48:37;;;;;;;;;;;20.80;99.90;;;;;;5041792;28;20212;-78
2021/09/25 09:51:04;;;;;;;;;;;21.10;99.90;;;;;;5046641;28;19924;-81
2021/09/25 09:53:41;;;;;;;;;;;21.30;99.90;;;;;;5048738;28;19925;-80
2021/09/25 09:56:22;;;;;;;;;;;21.30;99.90;;;;;;5045262;28;20019;-79
2021/09/25 09:58:56;;;;;;;;;;;21.40;99.90;;;;;;5040656;28;19932;-76
2021/09/25 10:01:23;;;;;;;;;;;21.20;99.90;;;;;;5043647;28;19925;-80
2021/09/25 10:03:50;;;;;;;;;;;21.60;99.90;;;;;;5041105;28;19932;-79
2021/09/25 10:06:17;;;;;;;;;;;21.90;99.90;;;;;;5043660;28;20240;-78
2021/09/25 10:08:43;;;;;;;;;;;22.20;99.90;;;;;;5043237;28;20019;-79
2021/09/25 10:11:10;;;;;;;;;;;21.80;99.90;;;;;;5042591;28;19925;-82
2021/09/25 10:13:40;;;;;;;;;;;21.70;99.90;;;;;;5052418;28;19935;-80
2021/09/25 10:16:07;;;;;;;;;;;21.70;99.90;;;;;;5043862;28;20115;-80
2021/09/25 10:18:34;;;;;;;;;;;21.20;99.90;;;;;;5037338;28;19929;-81
2021/09/25 10:21:01;;;;;;;;;;;21.00;99.90;;;;;;5041204;28;19986;-80
2021/09/25 10:23:28;;;;;;;;;;;20.80;99.90;;;;;;5053840;28;19935;-80
2021/09/25 10:25:58;;;;;;;;;;;20.80;99.90;;;;;;5042369;28;19933;-81
2021/09/25 10:28:26;;;;;;;;;;;20.60;99.90;;;;;;5050449;28;19925;-81
2021/09/25 10:30:54;;;;;;;;;;;20.30;99.90;;;;;;5039113;28;19975;-80
2021/09/25 10:33:22;;;;;;;;;;;20.20;99.90;;;;;;5040945;28;20028;-80
2021/09/25 10:35:49;;;;;;;;;;;20.20;99.90;;;;;;5047847;28;19948;-80
2021/09/25 10:38:30;;;;;;;;;;;20.30;99.90;;;;;;5037604;28;19924;-80
2021/09/25 10:41:12;;;;;;;;;;;20.40;99.90;;;;;;5040248;28;19951;-81
2021/09/25 10:43:41;;;;;;;;;;;20.50;99.90;;;;;;5038394;28;19929;-80
2021/09/25 10:46:10;;;;;;;;;;;20.60;99.90;;;;;;5043249;28;19932;-80
2021/09/25 10:48:45;;;;;;;;;;;20.70;99.90;;;;;;5033729;28;19975;-81
2021/09/25 10:51:14;;;;;;;;;;;20.60;99.90;;;;;;5038438;28;19932;-80
2021/09/25 10:53:42;;;;;;;;;;;20.40;99.90;;;;;;5043320;28;20012;-80
2021/09/25 10:56:16;;;;;;;;;;;20.30;99.90;;;;;;5037583;28;20011;-81
2021/09/25 10:58:43;;;;;;;;;;;20.40;99.90;;;;;;5036070;28;20387;-81
2021/09/25 11:01:12;;;;;;;;;;;20.50;99.90;;;;;;5050577;28;20296;-80
2021/09/25 11:03:55;;;;;;;;;;;20.70;99.90;;;;;;5051830;28;19933;-80
2021/09/25 11:06:23;;;;;;;;;;;20.90;99.90;;;;;;5054043;28;20356;-78
2021/09/25 11:08:51;;;;;;;;;;;21.10;99.90;;;;;;5051513;28;19945;-81
2021/09/25 11:11:19;;;;;;;;;;;21.20;99.90;;;;;;5053489;28;20415;-80
2021/09/25 11:14:05;;;;;;;;;;;21.20;99.30;;;;;;5056073;28;19925;-81
2021/09/25 11:16:46;;;;;;;;;;;21.40;98.80;;;;;;5051350;28;19928;-81
2021/09/25 11:19:29;;;;;;;;;;;21.30;97.50;;;;;;5041375;28;19932;-81
2021/09/25 11:21:59;;;;;;;;;;;21.20;96.70;;;;;;5037139;28;19931;-81
2021/09/25 11:24:26;;;;;;;;;;;21.30;97.30;;;;;;5041409;28;20427;-81
2021/09/25 11:26:53;;;;;;;;;;;21.40;97.90;;;;;;5039130;28;20036;-81
2021/09/25 11:29:19;;;;;;;;;;;21.50;97.40;;;;;;5036966;28;19947;-80
2021/09/25 11:31:49;;;;;;;;;;;21.60;97.10;;;;;;5045423;28;19925;-80
2021/09/25 11:34:22;;;;;;;;;;;21.70;94.60;;;;;;5041567;28;20343;-81
2021/09/25 11:36:52;;;;;;;;;;;21.80;92.20;;;;;;5044599;28;19931;-81
2021/09/25 11:39:22;;;;;;;;;;;21.90;91.90;;;;;;5040879;28;19925;-80
2021/09/25 11:42:03;;;;;;;;;;;22.00;91.80;;;;;;5041317;28;20023;-80
2021/09/25 11:44:40;;;;;;;;;;;22.10;92.80;;;;;;5056845;28;19996;-80
2021/09/25 11:47:08;;;;;;;;;;;21.90;90.80;;;;;;5046613;28;20422;-81
2021/09/25 11:49:35;;;;;;;;;;;22.00;91.10;;;;;;5043712;28;19924;-80
2021/09/25 11:52:02;;;;;;;;;;;22.10;90.10;;;;;;5039470;28;19925;-81
2021/09/25 11:54:29;;;;;;;;;;;22.30;91.70;;;;;;5039202;28;20030;-80
2021/09/25 11:56:56;;;;;;;;;;;22.40;92.70;;;;;;5048638;28;19975;-81
2021/09/25 11:59:25;;;;;;;;;;;22.60;93.00;;;;;;5045919;28;19931;-81
2021/09/25 12:01:51;;;;;;;;;;;22.50;91.90;;;;;;5036135;28;19933;-81
2021/09/25 12:04:20;;;;;;;;;;;22.60;91.60;;;;;;5044373;28;19990;-81
2021/09/25 12:06:53;;;;;;;;;;;22.60;91.40;;;;;;5037907;28;19935;-80
2021/09/25 12:09:35;;;;;;;;;;;22.50;90.70;;;;;;5044103;28;19964;-82
2021/09/25 12:12:02;;;;;;;;;;;22.80;90.50;;;;;;5039080;28;19933;-82
2021/09/25 12:14:33;;;;;;;;;;;23.00;89.40;;;;;;5045137;28;19968;-82
2021/09/25 12:17:00;;;;;;;;;;;23.00;89.00;;;;;;5043080;28;19928;-82
2021/09/25 12:19:28;;;;;;;;;;;23.00;90.20;;;;;;5040898;28;20387;-82
2021/09/25 12:21:55;;;;;;;;;;;23.10;89.60;;;;;;5033096;28;20466;-82
2021/09/25 12:24:22;;;;;;;;;;;23.00;90.00;;;;;;5037724;28;20690;-82
2021/09/25 12:26:52;;;;;;;;;;;23.00;90.60;;;;;;5043464;28;20388;-81
2021/09/25 12:29:19;;;;;;;;;;;23.00;91.30;;;;;;5038541;28;19929;-82
2021/09/25 12:31:47;;;;;;;;;;;22.90;90.90;;;;;;5041897;28;19925;-81
2021/09/25 12:34:14;;;;;;;;;;;22.90;91.50;;;;;;5041476;28;20028;-81
2021/09/25 12:36:43;;;;;;;;;;;23.00;91.00;;;;;;5037774;28;20023;-81
2021/09/25 12:39:11;;;;;;;;;;;23.10;90.50;;;;;;5043511;28;19995;-81
2021/09/25 12:41:39;;;;;;;;;;;23.00;91.00;;;;;;5041756;28;20009;-80
2021/09/25 12:44:09;;;;;;;;;;;23.00;90.70;;;;;;5038980;28;21636;-79
2021/09/25 12:46:37;;;;;;;;;;;23.20;91.40;;;;;;5041666;28;19925;-80
2021/09/25 12:49:19;;;;;;;;;;;23.10;91.80;;;;;;5042990;28;20015;-76
2021/09/25 12:51:49;;;;;;;;;;;23.10;90.30;;;;;;5037653;28;20405;-79
2021/09/25 12:54:17;;;;;;;;;;;22.90;90.90;;;;;;5034117;28;19939;-78
2021/09/25 12:56:46;;;;;;;;;;;22.90;91.10;;;;;;5039125;28;19925;-80
2021/09/25 12:59:17;;;;;;;;;;;22.90;91.00;;;;;;5038565;28;19932;-80
2021/09/25 13:01:45;;;;;;;;;;;22.90;90.40;;;;;;5038338;28;19931;-80
2021/09/25 13:04:20;;;;;;;;;;;23.10;90.10;;;;;;5037013;28;19940;-80
2021/09/25 13:06:48;;;;;;;;;;;23.30;89.30;;;;;;5036565;28;20387;-80
2021/09/25 13:09:15;;;;;;;;;;;23.40;88.40;;;;;;5037961;28;20027;-80
2021/09/25 13:11:57;;;;;;;;;;;23.30;89.30;;;;;;5038698;28;19955;-80
2021/09/25 13:14:28;;;;;;;;;;;23.50;90.00;;;;;;5038673;28;19929;-80
2021/09/25 13:16:56;;;;;;;;;;;23.70;89.20;;;;;;5034641;28;20011;-80
2021/09/25 13:19:22;;;;;;;;;;;23.80;89.80;;;;;;5039133;28;19947;-79
2021/09/25 13:21:50;;;;;;;;;;;23.90;88.50;;;;;;5042205;28;19985;-81
2021/09/25 13:24:18;;;;;;;;;;;23.80;88.30;;;;;;5041147;28;19931;-80
2021/09/25 13:26:45;;;;;;;;;;;23.70;87.90;;;;;;5044038;28;20417;-80
2021/09/25 13:29:12;;;;;;;;;;;23.50;88.40;;;;;;5042037;28;20384;-80
2021/09/25 13:31:39;;;;;;;;;;;23.60;88.30;;;;;;5034681;28;19925;-80
2021/09/25 13:34:06;;;;;;;;;;;23.60;88.50;;;;;;5043955;28;20040;-80
2021/09/25 13:36:32;;;;;;;;;;;23.40;89.60;;;;;;5040356;28;19933;-80
2021/09/25 13:39:00;;;;;;;;;;;23.50;90.20;;;;;;5042390;28;19931;-81
2021/09/25 13:41:27;;;;;;;;;;;23.50;90.30;;;;;;5039317;28;19935;-81
2021/09/25 13:43:54;;;;;;;;;;;23.60;90.00;;;;;;5042256;28;19931;-81
2021/09/25 13:46:21;;;;;;;;;;;23.80;90.10;;;;;;5039959;28;19925;-81
2021/09/25 13:48:49;;;;;;;;;;;24.10;88.60;;;;;;5039547;28;19925;-79
2021/09/25 13:51:16;;;;;;;;;;;24.20;87.50;;;;;;5041727;28;19925;-81
2021/09/25 13:53:43;;;;;;;;;;;24.10;87.30;;;;;;5044976;28;19932;-81
2021/09/25 13:56:11;;;;;;;;;;;24.00;87.40;;;;;;5046000;28;20392;-81
2021/09/25 13:58:37;;;;;;;;;;;24.00;87.90;;;;;;5044614;28;19924;-82
2021/09/25 14:01:05;;;;;;;;;;;23.90;87.70;;;;;;5037702;28;19931;-81
2021/09/25 14:03:31;;;;;;;;;;;23.60;87.50;;;;;;5044269;28;19925;-81
2021/09/25 14:05:58;;;;;;;;;;;23.60;87.20;;;;;;5042440;28;20294;-81
2021/09/25 14:08:25;;;;;;;;;;;23.50;88.70;;;;;;5047911;28;19979;-81
2021/09/25 14:10:52;;;;;;;;;;;23.50;89.10;;;;;;5043443;28;19991;-81
2021/09/25 14:13:20;;;;;;;;;;;23.70;88.10;;;;;;5045334;28;19996;-82
2021/09/25 14:15:46;;;;;;;;;;;23.80;87.50;;;;;;5046348;28;20015;-80
2021/09/25 14:18:13;;;;;;;;;;;23.80;87.40;;;;;;5048694;28;19932;-81
2021/09/25 14:20:42;;;;;;;;;;;23.70;87.60;;;;;;5047353;28;20016;-81